Ireland METAR reports

 

EIDW - Dublin Airport, Ireland
Distance from station: WNW 13km
Updated: 25/06/2018 08:30
Clear
Clear
 Wind from NNW
Wind: NNW 7 km/h
Temperature: 18°C
Dew Point: 9°C
Humidity: 56%
Barometer: 1026 hPa
Summary: Clear
Visibility: greater than 10 km
2018/06/25 07:30 EIDW 250730Z 33004KT 280V040 CAVOK 18/09 Q1026 NOSIG
EIME - Casement (mil), Ireland
Distance from station: WSW 26km
Updated: 25/06/2018 08:00
Clear
Clear
 Wind from WNW
Wind: WNW 11 km/h
Temperature: 17°C
Dew Point: 9°C
Humidity: 59%
Barometer: 1026 hPa
Summary: Clear
Visibility: greater than 10 km
2018/06/25 07:00 EIME 250700Z 29006KT CAVOK 17/09 Q1026
EGAC - Belfast Harbour, United Kingdom
Distance from station: N 140km
Updated: 25/06/2018 08:20
Clear
Clear
 Wind from N
Wind: N 7 km/h
Temperature: 17°C
Dew Point: 13°C
Humidity: 77%
Barometer: 1026 hPa
Clouds: Clear
Visibility: 10 km
2018/06/25 07:20 EGAC 250720Z AUTO 01004KT 9999 NCD 17/13 Q1026
 
EGAA - Belfast/Aldergro, United Kingdom
Distance from station: N 141km
Updated: 25/06/2018 08:20
Clear
Clear
 Wind from calm
Wind: Calm
Temperature: 17°C
Dew Point: 14°C
Humidity: 83%
Barometer: 1026 hPa
Summary: Clear
Visibility: greater than 10 km
2018/06/25 07:20 EGAA 250720Z 00000KT CAVOK 17/14 Q1026
EIWF - Waterford Arpt, Ireland
Distance from station: SSW 148km
Updated: 24/06/2018 21:30
NOT Current
Clear
Clear
 Wind from WSW
Wind: WSW 4 km/h
Temperature: 15°C
Dew Point: 12°C
Humidity: 82%
Barometer: 1025 hPa
Summary: Clear
Visibility: greater than 10 km
2018/06/24 20:30 EIWF 242030Z 25002KT CAVOK 15/12 Q1025
EIKN - Connaught Apt, Ireland
Distance from station: WNW 191km
Updated: 25/06/2018 08:30
Clear
Clear
 Wind from NNE
Wind: NNE 4 km/h
Temperature: 15°C
Dew Point: 9°C
Humidity: 68%
Barometer: 1027 hPa
Summary: Clear
Visibility: greater than 10 km
2018/06/25 07:30 EIKN 250730Z 02002KT CAVOK 15/09 Q1027 NOSIG
 
EISG - Sligo Arpt, Ireland
Distance from station: WNW 195km
Updated: 24/06/2018 20:30
NOT Current
Clear
Clear
 Wind from WNW
Wind: WNW 11 km/h
Temperature: 17°C
Dew Point: 10°C
Humidity: 64%
Barometer: 1024 hPa
Summary: Clear
Visibility: greater than 10 km
2018/06/24 19:30 EISG 241930Z 30006KT CAVOK 17/10 Q1024
EGAE - Eglinton/Londond, United Kingdom
Distance from station: NNW 198km
Updated: 25/06/2018 08:20
Clear
Clear
 Wind from varies
Wind: varies 6 km/h
Temperature: 16°C
Dew Point: 11°C
Humidity: 72%
Barometer: 1026 hPa
Summary: Clear
Visibility: greater than 10 km
2018/06/25 07:20 EGAE 250720Z VRB03KT CAVOK 16/11 Q1026
EINN - Shannon Airport, Ireland
Distance from station: WSW 204km
Updated: 25/06/2018 08:30
Clear
Clear
 Wind from NW
Wind: NW 4 km/h
Temperature: 15°C
Dew Point: 9°C
Humidity: 68%
Barometer: 1027 hPa
Summary: Clear
Visibility: greater than 10 km
2018/06/25 07:30 EINN 250730Z 32002KT CAVOK 15/09 Q1027 NOSIG
 
EICK - Cork Arpt/Corcai, Ireland
Distance from station: SW 234km
Updated: 25/06/2018 08:30
Mostly cloudy
Mostly cloudy
 Wind from NW
Wind: NW 11 km/h
Temperature: 14°C
Dew Point: 8°C
Humidity: 67%
Barometer: 1026 hPa
Clouds: Mostly cloudy
Visibility: 10 km
Cloud details: Few Clouds 671 m
Mostly cloudy 7620 m
2018/06/25 07:30 EICK 250730Z 31006KT 9999 FEW022 BKN250 14/08 Q1026 NOSIG